East Alamosa, Colorado
Current Conditions -  °F | °C
As of 6:52 AM on Thursday 27 Nov 2014 (Local Time) from KALS Reporting Station
Clear Clear  
Wind Chill:   Ceiling: Unl
Heat Index:   Visibility: 10mi
Dew Point:   Wind: 3mph
Humidity: 83%   Direction: 110°ESE
Pressure: 30.51"   Gusts: NA
Location:  37.469°N, 105.836°W
Report Text: KALS 271352Z AUTO 11003KT 10SM CLR M13/M16 A3051 RMK AO2 SLP381 T11331156
Loading
Personal Weather Stations






























Interactive Weather Map New forecast layout! Learn more

10-Day Weather Forecast

Advertisements
Track Severe Weather on mobile